Time;durP1;ratioP1;P1;durP2;ratioP2;P2;SDS_P1;SDS_P2;PMS_P1;PMS_P2;Temp;Humidity;BMP_temperature;BMP_pressure;BME280_temperature;BME280_humidity;BME280_pressure;Samples;Min_cycle;Max_cycle;Signal;HPM_P1;HPM_P2
2022/06/21 00:01:31;;;;;;;18.38;4.50;;;;;;;;;;5030079;28;20095;-71
2022/06/21 00:03:57;;;;;;;17.25;4.88;;;;;;;;;;5030671;28;20042;-69
2022/06/21 00:06:23;;;;;;;;;;;;;;;;;;5039135;28;20256;-71
2022/06/21 00:08:50;;;;;;;15.55;4.53;;;;;;;;;;5037874;28;19952;-69
2022/06/21 00:11:26;;;;;;;15.35;5.00;;;;;;;;;;5038600;28;20497;-71
2022/06/21 00:13:52;;;;;;;;;;;;;;;;;;5029606;28;20037;-70
2022/06/21 00:16:19;;;;;;;15.18;5.22;;;;;;;;;;5030786;28;20550;-70
2022/06/21 00:18:46;;;;;;;13.25;4.60;;;;;;;;;;5014138;28;20208;-70
2022/06/21 00:21:15;;;;;;;16.88;5.45;;;;;;;;;;5026490;28;20050;-70
2022/06/21 00:23:42;;;;;;;17.63;5.32;;;;;;;;;;5030422;28;20045;-70
2022/06/21 00:26:10;;;;;;;17.10;4.82;;;;;;;;;;5032276;28;20046;-70
2022/06/21 00:28:36;;;;;;;21.67;5.00;;;;;;;;;;5031452;28;20041;-70
2022/06/21 00:31:02;;;;;;;17.27;5.13;;;;;;;;;;5032750;28;20053;-68
2022/06/21 00:33:28;;;;;;;15.98;4.88;;;;;;;;;;5034507;28;20053;-71
2022/06/21 00:35:56;;;;;;;16.58;4.93;;;;;;;;;;5016582;28;20129;-70
2022/06/21 00:38:30;;;;;;;18.50;5.43;;;;;;;;;;5033064;28;20124;-70
2022/06/21 00:40:57;;;;;;;15.20;4.68;;;;;;;;;;5022736;28;20047;-71
2022/06/21 00:43:25;;;;;;;14.95;5.03;;;;;;;;;;5032876;28;20052;-71
2022/06/21 00:45:52;;;;;;;16.83;5.00;;;;;;;;;;5034074;28;20052;-71
2022/06/21 00:48:19;;;;;;;25.15;5.50;;;;;;;;;;5034571;28;20043;-70
2022/06/21 00:50:48;;;;;;;18.25;5.10;;;;;;;;;;5031959;28;20055;-70
2022/06/21 00:53:26;;;;;;;16.27;5.22;;;;;;;;;;5033890;28;20045;-70
2022/06/21 00:56:09;;;;;;;16.50;5.95;;;;;;;;;;5032809;28;20049;-70
2022/06/21 00:58:35;;;;;;;12.73;5.15;;;;;;;;;;5031327;28;20092;-70
2022/06/21 01:01:01;;;;;;;19.25;5.50;;;;;;;;;;5033987;28;20056;-70
2022/06/21 01:03:37;;;;;;;14.85;5.25;;;;;;;;;;5032404;28;20061;-70
2022/06/21 01:06:15;;;;;;;15.77;5.57;;;;;;;;;;5033502;28;20048;-70
2022/06/21 01:08:43;;;;;;;16.73;5.93;;;;;;;;;;5017076;28;20056;-71
2022/06/21 01:11:11;;;;;;;22.08;6.68;;;;;;;;;;5032953;28;20049;-70
2022/06/21 01:13:39;;;;;;;16.38;5.72;;;;;;;;;;5032638;28;20048;-71
2022/06/21 01:16:06;;;;;;;15.48;5.80;;;;;;;;;;5030416;28;20497;-71
2022/06/21 01:18:32;;;;;;;16.50;5.85;;;;;;;;;;5031966;28;20124;-70
2022/06/21 01:20:59;;;;;;;16.67;5.75;;;;;;;;;;5032112;28;20497;-71
2022/06/21 01:23:31;;;;;;;23.02;6.53;;;;;;;;;;5033088;28;20045;-71
2022/06/21 01:26:16;;;;;;;17.60;5.38;;;;;;;;;;5031292;28;20038;-71
2022/06/21 01:28:43;;;;;;;17.40;5.78;;;;;;;;;;5032535;28;20508;-71
2022/06/21 01:31:09;;;;;;;16.40;5.47;;;;;;;;;;5032685;28;20042;-69
2022/06/21 01:33:36;;;;;;;17.38;6.13;;;;;;;;;;5015364;28;20500;-71
2022/06/21 01:36:07;;;;;;;14.75;5.50;;;;;;;;;;5033154;28;20045;-71
2022/06/21 01:38:35;;;;;;;20.23;6.18;;;;;;;;;;5027043;28;20045;-70
2022/06/21 01:41:05;;;;;;;15.93;5.45;;;;;;;;;;5030730;28;20073;-70
2022/06/21 01:43:32;;;;;;;18.65;6.10;;;;;;;;;;5031810;28;20152;-71
2022/06/21 01:46:01;;;;;;;16.52;6.22;;;;;;;;;;5034585;28;20489;-70
2022/06/21 01:48:36;;;;;;;18.50;6.20;;;;;;;;;;5036823;28;20512;-72
2022/06/21 01:51:05;;;;;;;16.58;6.28;;;;;;;;;;5046468;28;20105;-71
2022/06/21 01:53:32;;;;;;;17.60;6.78;;;;;;;;;;5044091;28;20053;-71
2022/06/21 01:56:00;;;;;;;18.85;6.20;;;;;;;;;;5034066;28;20124;-71
2022/06/21 01:58:28;;;;;;;14.88;6.00;;;;;;;;;;5015776;28;20086;-70
2022/06/21 02:00:56;;;;;;;13.10;5.78;;;;;;;;;;5031536;28;20045;-70
2022/06/21 02:03:25;;;;;;;18.00;5.70;;;;;;;;;;5033087;28;20104;-70
2022/06/21 02:05:54;;;;;;;15.23;5.55;;;;;;;;;;5032496;28;20049;-71
2022/06/21 02:08:24;;;;;;;18.02;6.53;;;;;;;;;;5031712;28;20045;-70
2022/06/21 02:10:52;;;;;;;15.48;6.00;;;;;;;;;;5031617;28;20134;-69
2022/06/21 02:13:21;;;;;;;13.68;6.10;;;;;;;;;;5031601;28;20100;-70
2022/06/21 02:15:51;;;;;;;18.00;6.30;;;;;;;;;;5032586;28;21148;-70
2022/06/21 02:18:18;;;;;;;18.45;6.30;;;;;;;;;;5032313;28;20056;-70
2022/06/21 02:20:48;;;;;;;14.00;5.60;;;;;;;;;;5032413;28;20045;-70
2022/06/21 02:23:15;;;;;;;18.48;6.13;;;;;;;;;;5030142;28;20046;-71
2022/06/21 02:25:42;;;;;;;17.75;5.90;;;;;;;;;;5032902;28;20493;-71
2022/06/21 02:28:10;;;;;;;17.58;5.82;;;;;;;;;;5032196;28;20120;-71
2022/06/21 02:30:36;;;;;;;15.52;5.82;;;;;;;;;;5031622;28;20087;-72
2022/06/21 02:33:05;;;;;;;18.83;6.47;;;;;;;;;;5014291;28;20057;-71
2022/06/21 02:35:46;;;;;;;18.65;6.72;;;;;;;;;;5032472;28;20129;-71
2022/06/21 02:38:15;;;;;;;14.30;6.13;;;;;;;;;;5031742;28;20049;-71
2022/06/21 02:41:03;;;;;;;21.50;7.05;;;;;;;;;;5031581;28;20140;-71
2022/06/21 02:43:33;;;;;;;17.77;8.05;;;;;;;;;;5000822;28;20048;-74
2022/06/21 02:46:08;;;;;;;15.57;7.00;;;;;;;;;;5015293;28;20053;-70
2022/06/21 02:48:43;;;;;;;16.90;7.10;;;;;;;;;;5030777;28;20493;-71
2022/06/21 02:51:12;;;;;;;16.90;7.03;;;;;;;;;;5031513;28;20041;-71
2022/06/21 02:53:42;;;;;;;15.50;7.13;;;;;;;;;;5014470;28;20038;-72
2022/06/21 02:56:23;;;;;;;21.98;7.40;;;;;;;;;;5031886;28;20092;-71
2022/06/21 02:58:52;;;;;;;20.20;7.05;;;;;;;;;;5014637;28;20473;-70
2022/06/21 03:01:29;;;;;;;19.73;6.35;;;;;;;;;;5030209;28;20041;-72
2022/06/21 03:03:56;;;;;;;14.48;7.00;;;;;;;;;;5028437;28;20508;-70
2022/06/21 03:06:24;;;;;;;16.15;7.00;;;;;;;;;;5027540;28;20499;-69
2022/06/21 03:08:59;;;;;;;17.23;6.80;;;;;;;;;;5029371;28;20045;-70
2022/06/21 03:11:28;;;;;;;14.65;6.38;;;;;;;;;;5013023;28;20453;-70
2022/06/21 03:13:54;;;;;;;20.42;7.25;;;;;;;;;;5030505;28;20504;-70
2022/06/21 03:16:22;;;;;;;18.33;7.15;;;;;;;;;;5028656;28;20107;-71
2022/06/21 03:18:51;;;;;;;16.50;7.18;;;;;;;;;;5026900;28;20060;-72
2022/06/21 03:21:20;;;;;;;16.48;7.03;;;;;;;;;;5027522;28;20555;-71
2022/06/21 03:23:46;;;;;;;18.27;6.78;;;;;;;;;;5026254;28;20041;-70
2022/06/21 03:26:13;;;;;;;14.55;6.55;;;;;;;;;;5026830;28;20055;-72
2022/06/21 03:28:45;;;;;;;17.70;7.57;;;;;;;;;;5027757;28;20053;-71
2022/06/21 03:31:14;;;;;;;18.88;7.43;;;;;;;;;;5028720;28;20417;-70
2022/06/21 03:33:41;;;;;;;19.35;6.35;;;;;;;;;;5012415;28;20519;-70
2022/06/21 03:36:08;;;;;;;15.48;6.75;;;;;;;;;;5040999;28;20064;-70
2022/06/21 03:38:36;;;;;;;14.55;7.35;;;;;;;;;;5034075;28;20045;-70
2022/06/21 03:43:58;;;;;;;14.75;6.75;;;;;;;;;;5028162;28;20135;-71
2022/06/21 03:46:29;;;;;;;20.55;7.32;;;;;;;;;;5026365;28;20060;-70
2022/06/21 03:49:03;;;;;;;16.30;7.22;;;;;;;;;;5011496;28;20515;-71
2022/06/21 03:51:33;;;;;;;15.68;7.07;;;;;;;;;;5026181;28;20397;-70
2022/06/21 03:54:01;;;;;;;15.95;6.95;;;;;;;;;;5026652;28;20040;-71
2022/06/21 03:56:35;;;;;;;14.35;6.90;;;;;;;;;;5030486;28;20124;-69
2022/06/21 03:59:25;;;;;;;15.38;7.40;;;;;;;;;;5030656;28;20049;-71
2022/06/21 04:02:07;;;;;;;17.10;7.18;;;;;;;;;;5011153;28;20053;-70
2022/06/21 04:04:33;;;;;;;19.25;7.15;;;;;;;;;;5014068;28;20037;-70
2022/06/21 04:06:59;;;;;;;;;;;;;;;;;;5001013;28;20130;-72
2022/06/21 04:09:28;;;;;;;16.45;7.65;;;;;;;;;;5034432;28;19972;-71
2022/06/21 04:12:13;;;;;;;15.85;7.78;;;;;;;;;;5033445;28;20047;-70
2022/06/21 04:14:47;;;;;;;13.48;7.22;;;;;;;;;;5030985;28;20503;-71
2022/06/21 04:17:28;;;;;;;15.63;7.75;;;;;;;;;;5034363;28;20061;-71
2022/06/21 04:20:13;;;;;;;16.38;7.53;;;;;;;;;;5033724;28;20056;-71
2022/06/21 04:22:43;;;;;;;15.85;8.27;;;;;;;;;;5032742;28;20049;-71
2022/06/21 04:25:33;;;;;;;20.33;7.80;;;;;;;;;;5030080;28;20044;-71
2022/06/21 04:28:03;;;;;;;16.73;7.95;;;;;;;;;;5034058;28;20049;-71
2022/06/21 04:30:33;;;;;;;18.13;7.70;;;;;;;;;;5019164;28;20111;-71
2022/06/21 04:33:08;;;;;;;15.18;7.57;;;;;;;;;;5033669;28;20482;-70
2022/06/21 04:35:36;;;;;;;18.25;7.78;;;;;;;;;;5030587;28;20046;-70
2022/06/21 04:38:02;;;;;;;14.75;7.22;;;;;;;;;;5016259;28;20052;-71
2022/06/21 04:40:38;;;;;;;15.35;7.68;;;;;;;;;;5032924;28;20050;-71
2022/06/21 04:43:04;;;;;;;17.77;8.07;;;;;;;;;;5033011;28;20053;-71
2022/06/21 04:45:30;;;;;;;16.25;7.68;;;;;;;;;;5030465;28;20042;-71
2022/06/21 04:47:59;;;;;;;19.90;7.35;;;;;;;;;;5032145;28;20112;-70
2022/06/21 04:50:26;;;;;;;15.98;7.85;;;;;;;;;;5021047;28;20053;-71
2022/06/21 04:53:03;;;;;;;17.50;7.90;;;;;;;;;;5032221;28;20141;-70
2022/06/21 04:55:38;;;;;;;19.60;8.23;;;;;;;;;;5031087;28;20498;-71
2022/06/21 04:58:04;;;;;;;19.90;8.82;;;;;;;;;;5032523;28;20413;-70
2022/06/21 05:00:31;;;;;;;19.30;8.90;;;;;;;;;;5031741;28;20052;-71
2022/06/21 05:03:00;;;;;;;16.25;7.80;;;;;;;;;;5029881;28;20041;-70
2022/06/21 05:05:28;;;;;;;14.98;7.95;;;;;;;;;;5014401;28;20077;-69
2022/06/21 05:08:00;;;;;;;21.20;8.88;;;;;;;;;;5028665;28;20045;-69
2022/06/21 05:10:32;;;;;;;18.15;8.23;;;;;;;;;;5030770;28;20045;-70
2022/06/21 05:12:59;;;;;;;17.65;8.98;;;;;;;;;;5013573;28;20049;-70
2022/06/21 05:15:28;;;;;;;15.70;8.38;;;;;;;;;;5031220;28;20128;-71
2022/06/21 05:18:04;;;;;;;17.75;8.93;;;;;;;;;;5032240;28;20045;-70
2022/06/21 05:20:33;;;;;;;20.52;9.35;;;;;;;;;;5042114;28;20076;-69
2022/06/21 05:23:01;;;;;;;17.55;8.98;;;;;;;;;;5023495;28;20598;-70
2022/06/21 05:25:27;;;;;;;18.13;9.13;;;;;;;;;;5030230;28;20042;-71
2022/06/21 05:28:13;;;;;;;20.20;9.82;;;;;;;;;;5027616;28;20045;-69
2022/06/21 05:30:45;;;;;;;21.67;9.60;;;;;;;;;;5011817;28;20111;-68
2022/06/21 05:33:15;;;;;;;17.48;9.05;;;;;;;;;;5030006;28;20053;-70
2022/06/21 05:35:41;;;;;;;19.95;9.05;;;;;;;;;;5031100;28;20107;-68
2022/06/21 05:38:07;;;;;;;;;;;;;;;;;;5027434;28;20052;-69
2022/06/21 05:40:46;;;;;;;16.70;8.10;;;;;;;;;;5028254;28;19921;-68
2022/06/21 05:43:17;;;;;;;19.90;9.50;;;;;;;;;;5025765;28;20049;-69
2022/06/21 05:45:45;;;;;;;16.85;8.75;;;;;;;;;;5026002;28;20041;-68
2022/06/21 05:48:20;;;;;;;15.32;9.15;;;;;;;;;;5013677;28;20045;-70
2022/06/21 05:50:46;;;;;;;17.98;9.32;;;;;;;;;;5023211;28;20490;-69
2022/06/21 05:53:15;;;;;;;18.40;9.52;;;;;;;;;;5029289;28;20045;-69
2022/06/21 05:55:43;;;;;;;20.13;9.20;;;;;;;;;;4996571;28;20110;-68
2022/06/21 05:58:21;;;;;;;16.52;9.40;;;;;;;;;;5030127;28;20124;-70
2022/06/21 06:00:47;;;;;;;19.63;9.63;;;;;;;;;;5026524;28;20064;-69
2022/06/21 06:03:20;;;;;;;20.35;9.80;;;;;;;;;;5030015;28;20045;-70
2022/06/21 06:05:47;;;;;;;17.13;9.35;;;;;;;;;;5029563;28;20049;-69
2022/06/21 06:08:14;;;;;;;14.45;8.77;;;;;;;;;;5029063;28;20051;-71
2022/06/21 06:10:42;;;;;;;19.17;9.20;;;;;;;;;;5028850;28;20053;-70
2022/06/21 06:13:27;;;;;;;17.13;9.05;;;;;;;;;;5030935;28;20071;-70
2022/06/21 06:15:55;;;;;;;19.60;8.82;;;;;;;;;;5027428;28;20057;-70
2022/06/21 06:18:42;;;;;;;16.55;8.80;;;;;;;;;;5029864;28;20064;-70
2022/06/21 06:21:14;;;;;;;18.40;8.73;;;;;;;;;;5010300;28;20045;-71
2022/06/21 06:23:55;;;;;;;17.00;8.65;;;;;;;;;;5009399;28;20057;-70
2022/06/21 06:26:26;;;;;;;15.00;6.97;;;;;;;;;;5029335;28;20076;-71
2022/06/21 06:29:07;;;;;;;15.50;7.07;;;;;;;;;;5031294;28;20136;-69
2022/06/21 06:31:37;;;;;;;16.08;6.85;;;;;;;;;;5027933;28;20508;-69
2022/06/21 06:34:08;;;;;;;15.38;5.78;;;;;;;;;;5011273;28;20044;-70
2022/06/21 06:36:47;;;;;;;15.02;5.30;;;;;;;;;;5030616;28;20559;-71
2022/06/21 06:39:27;;;;;;;16.65;5.78;;;;;;;;;;5031371;28;20041;-73
2022/06/21 06:41:58;;;;;;;15.63;5.00;;;;;;;;;;5027796;28;20089;-69
2022/06/21 06:44:26;;;;;;;17.05;5.55;;;;;;;;;;5027121;28;20045;-70
2022/06/21 06:46:53;;;;;;;13.82;4.97;;;;;;;;;;5028165;28;20123;-69
2022/06/21 06:49:21;;;;;;;15.85;5.60;;;;;;;;;;5011719;28;20053;-70
2022/06/21 06:51:55;;;;;;;14.20;5.57;;;;;;;;;;5028888;28;20404;-70
2022/06/21 06:54:24;;;;;;;12.63;5.38;;;;;;;;;;5028343;28;20091;-70
2022/06/21 06:56:58;;;;;;;13.80;4.82;;;;;;;;;;5030953;28;20080;-68
2022/06/21 06:59:25;;;;;;;13.05;5.05;;;;;;;;;;5032044;28;20045;-70
2022/06/21 07:02:14;;;;;;;12.00;5.53;;;;;;;;;;5030986;28;20105;-67
2022/06/21 07:04:43;;;;;;;16.08;5.70;;;;;;;;;;5042438;28;20083;-69
2022/06/21 07:07:17;;;;;;;15.07;5.70;;;;;;;;;;5014802;28;20154;-70
2022/06/21 07:09:47;;;;;;;14.68;5.47;;;;;;;;;;5029225;28;20050;-69
2022/06/21 07:12:13;;;;;;;14.98;5.68;;;;;;;;;;5013102;28;20053;-69
2022/06/21 07:14:39;;;;;;;14.68;4.80;;;;;;;;;;5029435;28;20171;-69
2022/06/21 07:17:12;;;;;;;15.05;5.00;;;;;;;;;;5011061;28;20053;-70
2022/06/21 07:19:38;;;;;;;15.30;5.63;;;;;;;;;;5030767;28;20049;-70
2022/06/21 07:22:13;;;;;;;14.90;6.72;;;;;;;;;;5029200;28;20045;-70
2022/06/21 07:24:39;;;;;;;15.48;6.90;;;;;;;;;;5029203;28;20037;-70
2022/06/21 07:27:05;;;;;;;;;;;;;;;;;;5012318;28;20481;-69
2022/06/21 07:29:38;;;;;;;12.75;6.75;;;;;;;;;;5028954;28;20023;-69
2022/06/21 07:32:14;;;;;;;17.25;6.72;;;;;;;;;;5014527;28;20054;-70
2022/06/21 07:35:02;;;;;;;13.38;5.90;;;;;;;;;;5042237;28;20150;-70
2022/06/21 07:37:33;;;;;;;15.48;6.18;;;;;;;;;;5032653;28;20040;-68
2022/06/21 07:40:00;;;;;;;18.63;6.15;;;;;;;;;;5033223;28;20037;-70
2022/06/21 07:42:43;;;;;;;16.77;5.78;;;;;;;;;;5032242;28;20072;-70
2022/06/21 07:45:29;;;;;;;12.73;5.40;;;;;;;;;;5017207;28;20065;-70
2022/06/21 07:48:00;;;;;;;18.90;6.68;;;;;;;;;;5029924;28;20128;-68
2022/06/21 07:50:32;;;;;;;14.07;6.43;;;;;;;;;;5033100;28;20072;-69
2022/06/21 07:53:00;;;;;;;13.43;6.53;;;;;;;;;;5032710;28;20120;-68
2022/06/21 07:55:52;;;;;;;12.80;5.97;;;;;;;;;;4998138;28;20045;-70
2022/06/21 07:58:23;;;;;;;14.52;6.22;;;;;;;;;;5029253;28;20050;-70
2022/06/21 08:06:42;;;;;;;;;;;;;;;;;;5035214;28;20128;-69
2022/06/21 08:09:14;;;;;;;17.30;5.50;;;;;;;;;;5025784;28;19918;-69
2022/06/21 08:11:42;;;;;;;12.68;5.32;;;;;;;;;;5020881;28;20509;-70
2022/06/21 08:14:09;;;;;;;12.27;4.95;;;;;;;;;;5007126;28;20440;-70
2022/06/21 08:16:38;;;;;;;16.88;5.00;;;;;;;;;;5014784;28;20042;-70
2022/06/21 08:19:08;;;;;;;13.63;4.85;;;;;;;;;;5023942;28;20049;-69
2022/06/21 08:21:48;;;;;;;17.73;4.78;;;;;;;;;;5033685;28;20049;-70
2022/06/21 08:24:17;;;;;;;12.48;5.03;;;;;;;;;;5023085;28;20514;-68
2022/06/21 08:26:47;;;;;;;14.68;5.70;;;;;;;;;;5030074;28;20092;-69
2022/06/21 08:29:17;;;;;;;17.55;5.07;;;;;;;;;;5022224;28;20127;-69
2022/06/21 08:31:48;;;;;;;14.85;5.45;;;;;;;;;;5031102;28;20041;-70
2022/06/21 08:34:28;;;;;;;18.80;5.43;;;;;;;;;;5021175;28;20416;-71
2022/06/21 08:36:56;;;;;;;13.93;5.68;;;;;;;;;;5024880;28;20377;-70
2022/06/21 08:39:22;;;;;;;13.75;5.13;;;;;;;;;;5031970;28;20485;-72
2022/06/21 08:41:55;;;;;;;16.98;5.28;;;;;;;;;;5029319;28;20029;-69
2022/06/21 08:44:21;;;;;;;13.05;4.97;;;;;;;;;;5031506;28;20128;-71
2022/06/21 08:46:58;;;;;;;13.65;4.50;;;;;;;;;;5019404;28;20381;-72
2022/06/21 08:49:36;;;;;;;12.50;5.28;;;;;;;;;;5022233;28;20120;-70
2022/06/21 08:52:05;;;;;;;14.10;4.38;;;;;;;;;;5037687;28;20103;-68
2022/06/21 08:54:51;;;;;;;10.73;4.38;;;;;;;;;;5017872;28;20120;-68
2022/06/21 08:57:20;;;;;;;13.68;5.15;;;;;;;;;;5030519;28;20059;-70
2022/06/21 09:00:01;;;;;;;12.95;5.40;;;;;;;;;;5030993;28;20037;-68
2022/06/21 09:02:37;;;;;;;16.40;5.13;;;;;;;;;;5028254;28;20062;-69
2022/06/21 09:05:22;;;;;;;11.82;5.32;;;;;;;;;;5029174;28;20040;-69
2022/06/21 09:07:51;;;;;;;12.55;4.80;;;;;;;;;;5030815;28;20045;-67
2022/06/21 09:10:26;;;;;;;14.27;5.28;;;;;;;;;;5030367;28;20482;-68
2022/06/21 09:13:08;;;;;;;13.23;4.90;;;;;;;;;;5022006;28;20138;-71
2022/06/21 09:15:34;;;;;;;15.63;5.50;;;;;;;;;;5031335;28;20038;-69
2022/06/21 09:18:09;;;;;;;14.68;6.10;;;;;;;;;;5014268;28;20041;-69
2022/06/21 09:21:08;;;;;;;11.80;5.15;;;;;;;;;;5031995;28;20045;-67
2022/06/21 09:23:36;;;;;;;13.63;5.53;;;;;;;;;;4962778;28;20624;-68
2022/06/21 09:26:13;;;;;;;14.60;5.35;;;;;;;;;;5013744;28;20052;-68
2022/06/21 09:28:42;;;;;;;13.65;5.57;;;;;;;;;;5028340;28;20041;-68
2022/06/21 09:31:36;;;;;;;14.65;5.60;;;;;;;;;;5032484;28;20106;-69
2022/06/21 09:34:08;;;;;;;11.65;5.70;;;;;;;;;;5024763;28;20131;-69
2022/06/21 09:36:56;;;;;;;14.82;5.38;;;;;;;;;;5028110;28;20175;-68
2022/06/21 09:39:29;;;;;;;12.05;4.78;;;;;;;;;;5028802;28;20529;-68
2022/06/21 09:41:56;;;;;;;13.77;4.47;;;;;;;;;;5030241;28;20049;-67
2022/06/21 09:44:22;;;;;;;;;;;;;;;;;;5026841;28;20124;-67
2022/06/21 09:46:53;;;;;;;13.10;4.50;;;;;;;;;;5030667;28;19917;-67
2022/06/21 09:49:21;;;;;;;9.55;3.60;;;;;;;;;;5034055;28;20045;-70
2022/06/21 09:51:50;;;;;;;11.43;3.42;;;;;;;;;;5031659;28;20041;-67
2022/06/21 09:54:31;;;;;;;14.23;4.93;;;;;;;;;;5026391;28;20048;-69
2022/06/21 09:57:16;;;;;;;11.80;4.40;;;;;;;;;;5014377;28;20054;-68
2022/06/21 10:00:06;;;;;;;11.52;4.43;;;;;;;;;;5031883;28;20054;-70
2022/06/21 10:02:50;;;;;;;12.95;3.95;;;;;;;;;;4986323;28;20057;-70
2022/06/21 10:05:21;;;;;;;12.07;3.75;;;;;;;;;;5029719;28;20049;-70
2022/06/21 10:07:52;;;;;;;12.63;4.05;;;;;;;;;;5030824;28;20378;-68
2022/06/21 10:10:18;;;;;;;10.52;4.18;;;;;;;;;;5030803;28;20054;-70
2022/06/21 10:13:03;;;;;;;11.60;4.53;;;;;;;;;;5031174;28;20050;-69
2022/06/21 10:15:40;;;;;;;14.18;5.10;;;;;;;;;;5014256;28;20085;-68
2022/06/21 10:18:09;;;;;;;10.07;4.28;;;;;;;;;;5032060;28;20087;-70
2022/06/21 10:20:58;;;;;;;10.73;3.65;;;;;;;;;;5031743;28;20045;-70
2022/06/21 10:23:25;;;;;;;12.10;3.72;;;;;;;;;;5031046;28;20060;-68
2022/06/21 10:26:15;;;;;;;11.43;4.07;;;;;;;;;;5014246;28;20129;-69
2022/06/21 10:29:00;;;;;;;11.02;4.80;;;;;;;;;;5033093;28;20049;-69
2022/06/21 10:31:41;;;;;;;12.60;3.75;;;;;;;;;;5032068;28;20132;-67
2022/06/21 10:34:16;;;;;;;11.40;3.42;;;;;;;;;;5018309;28;20045;-67
2022/06/21 10:36:48;;;;;;;10.02;2.90;;;;;;;;;;5015860;28;20049;-69
2022/06/21 10:39:33;;;;;;;8.30;2.58;;;;;;;;;;5032422;28;20051;-69
2022/06/21 10:45:33;;;;;;;10.82;3.20;;;;;;;;;;5030412;28;20080;-68
2022/06/21 10:48:05;;;;;;;12.15;3.05;;;;;;;;;;5031402;28;20497;-69
2022/06/21 10:50:51;;;;;;;9.27;2.95;;;;;;;;;;5013017;28;20453;-67
2022/06/21 10:53:20;;;;;;;15.77;3.30;;;;;;;;;;5028048;28;20377;-66
2022/06/21 10:57:09;;;;;;;11.18;2.90;;;;;;;;;;5030612;28;20050;-68
2022/06/21 10:58:57;;;;;;;9.98;2.95;;;;;;;;;;5013211;28;20128;-69
2022/06/21 11:01:31;;;;;;;10.18;2.80;;;;;;;;;;5031142;28;20041;-66
2022/06/21 11:04:16;;;;;;;9.82;2.90;;;;;;;;;;5031411;28;20050;-68
2022/06/21 11:07:00;;;;;;;15.98;3.08;;;;;;;;;;5029845;28;20489;-67
2022/06/21 11:09:45;;;;;;;10.30;2.72;;;;;;;;;;5030664;28;20504;-67
2022/06/21 11:15:10;;;;;;;8.25;2.70;;;;;;;;;;5030962;28;20052;-67
2022/06/21 11:17:55;;;;;;;11.43;3.22;;;;;;;;;;5029314;28;20067;-67
2022/06/21 11:20:22;;;;;;;10.10;3.10;;;;;;;;;;5030582;28;20057;-66
2022/06/21 11:22:48;;;;;;;16.10;4.45;;;;;;;;;;5028504;28;20076;-66
2022/06/21 11:25:21;;;;;;;11.00;3.60;;;;;;;;;;5030777;28;20088;-68
2022/06/21 11:27:51;;;;;;;11.65;2.97;;;;;;;;;;5024384;28;20049;-66
2022/06/21 11:30:22;;;;;;;9.75;3.17;;;;;;;;;;5026530;28;20064;-67
2022/06/21 11:32:55;;;;;;;10.60;2.80;;;;;;;;;;5028507;28;20136;-68
2022/06/21 11:35:40;;;;;;;8.25;3.15;;;;;;;;;;5011279;28;20218;-69
2022/06/21 11:38:32;;;;;;;9.73;2.83;;;;;;;;;;5009918;28;20064;-66
2022/06/21 11:41:11;;;;;;;9.02;2.90;;;;;;;;;;5010145;28;20061;-68
2022/06/21 11:43:47;;;;;;;9.45;3.10;;;;;;;;;;5025279;28;20376;-67
2022/06/21 11:46:29;;;;;;;10.70;3.45;;;;;;;;;;5026207;28;20077;-66
2022/06/21 11:49:01;;;;;;;9.85;3.13;;;;;;;;;;5027955;28;20053;-67
2022/06/21 11:51:33;;;;;;;9.93;2.90;;;;;;;;;;5030142;28;20046;-65
2022/06/21 11:53:59;;;;;;;8.38;3.03;;;;;;;;;;5028031;28;20071;-66
2022/06/21 11:56:34;;;;;;;8.05;2.63;;;;;;;;;;5027520;28;20124;-67
2022/06/21 11:59:05;;;;;;;11.35;3.05;;;;;;;;;;5028425;28;20064;-65
2022/06/21 12:01:34;;;;;;;9.85;2.95;;;;;;;;;;5027198;28;20064;-65
2022/06/21 12:04:00;;;;;;;;;;;;;;;;;;5013230;28;20124;-76
2022/06/21 12:06:29;;;;;;;10.57;2.83;;;;;;;;;;5027443;28;20352;-81
2022/06/21 12:09:14;;;;;;;9.55;2.80;;;;;;;;;;5031743;28;20088;-78
2022/06/21 12:11:58;;;;;;;10.00;2.80;;;;;;;;;;5013425;28;20117;-75
2022/06/21 12:14:36;;;;;;;8.07;2.60;;;;;;;;;;5028428;28;20049;-71
2022/06/21 12:17:20;;;;;;;9.98;2.80;;;;;;;;;;5038858;28;20454;-75
2022/06/21 12:19:46;;;;;;;7.72;2.80;;;;;;;;;;5028606;28;20129;-72
2022/06/21 12:22:31;;;;;;;9.27;3.00;;;;;;;;;;5035018;28;20046;-80
2022/06/21 12:24:57;;;;;;;9.65;2.72;;;;;;;;;;5024518;28;20052;-74
2022/06/21 12:27:23;;;;;;;;;;;;;;;;;;5019794;28;20080;-76
2022/06/21 12:29:49;;;;;;;9.02;2.58;;;;;;;;;;5031241;28;20156;-78
2022/06/21 12:32:15;;;;;;;;;;;;;;;;;;5033307;28;20045;-75
2022/06/21 12:34:51;;;;;;;7.82;2.50;;;;;;;;;;5047900;28;19925;-75
2022/06/21 12:37:23;;;;;;;8.98;2.70;;;;;;;;;;5052379;28;20071;-74
2022/06/21 12:39:56;;;;;;;10.70;3.00;;;;;;;;;;5032588;28;20242;-72
2022/06/21 12:42:47;;;;;;;7.72;2.60;;;;;;;;;;5035254;28;20080;-74
2022/06/21 12:45:22;;;;;;;10.10;3.00;;;;;;;;;;5028572;28;20076;-73
2022/06/21 12:47:55;;;;;;;9.77;3.22;;;;;;;;;;5017244;28;20041;-74
2022/06/21 12:50:33;;;;;;;10.38;3.10;;;;;;;;;;5001366;28;20041;-73
2022/06/21 12:52:59;;;;;;;8.40;2.90;;;;;;;;;;5031008;28;20214;-76
2022/06/21 12:55:34;;;;;;;13.30;3.00;;;;;;;;;;5030974;28;20111;-75
2022/06/21 12:58:00;;;;;;;11.75;2.90;;;;;;;;;;5016581;28;20042;-79
2022/06/21 13:00:26;;;;;;;;;;;;;;;;;;5013355;28;20111;-75
2022/06/21 13:03:11;;;;;;;10.40;3.10;;;;;;;;;;5030400;28;19948;-72
2022/06/21 13:05:40;;;;;;;10.43;3.25;;;;;;;;;;5014351;28;20067;-74
2022/06/21 13:08:06;;;;;;;;;;;;;;;;;;5031738;28;20041;-75
2022/06/21 13:10:41;;;;;;;8.77;3.03;;;;;;;;;;5031980;28;19928;-77
2022/06/21 13:13:14;;;;;;;10.80;2.92;;;;;;;;;;5016802;28;20068;-73
2022/06/21 13:15:59;;;;;;;10.25;3.50;;;;;;;;;;5027589;28;20050;-74
2022/06/21 13:18:33;;;;;;;9.55;2.90;;;;;;;;;;5029426;28;20066;-73
2022/06/21 13:21:04;;;;;;;11.88;2.90;;;;;;;;;;5028112;28;20045;-65
2022/06/21 13:23:50;;;;;;;11.10;3.10;;;;;;;;;;5014286;28;20481;-67
2022/06/21 13:26:23;;;;;;;9.85;3.00;;;;;;;;;;5030437;28;20038;-67
2022/06/21 13:28:49;;;;;;;8.85;3.03;;;;;;;;;;5014031;28;20056;-63
2022/06/21 13:31:26;;;;;;;11.50;3.00;;;;;;;;;;5031848;28;20041;-66
2022/06/21 13:33:52;;;;;;;8.07;2.85;;;;;;;;;;5030031;28;20132;-67
2022/06/21 13:36:18;;;;;;;;;;;;;;;;;;5030914;28;20046;-67
2022/06/21 13:38:55;;;;;;;9.35;2.80;;;;;;;;;;5030109;28;20031;-66
2022/06/21 13:44:54;;;;;;;9.75;2.83;;;;;;;;;;5025508;28;20042;-66
2022/06/21 13:47:20;;;;;;;8.60;3.00;;;;;;;;;;5029156;28;20053;-68
2022/06/21 13:49:49;;;;;;;11.43;3.40;;;;;;;;;;5026033;28;20127;-66
2022/06/21 13:52:27;;;;;;;10.57;2.95;;;;;;;;;;5026193;28;20072;-67
2022/06/21 13:55:13;;;;;;;11.05;2.85;;;;;;;;;;5027866;28;20038;-66
2022/06/21 13:57:57;;;;;;;9.93;3.10;;;;;;;;;;5030350;28;20072;-66
2022/06/21 14:00:30;;;;;;;8.65;3.00;;;;;;;;;;5027409;28;20230;-69
2022/06/21 14:03:22;;;;;;;9.90;3.28;;;;;;;;;;5028882;28;20145;-69
2022/06/21 14:06:02;;;;;;;8.77;3.15;;;;;;;;;;5025671;28;20128;-69
2022/06/21 14:08:35;;;;;;;11.93;3.10;;;;;;;;;;5030331;28;20111;-67
2022/06/21 14:11:13;;;;;;;11.68;3.55;;;;;;;;;;5010182;28;20049;-66
2022/06/21 14:13:49;;;;;;;14.00;3.50;;;;;;;;;;5029442;28;20045;-67
2022/06/21 14:16:16;;;;;;;9.63;3.28;;;;;;;;;;5011370;28;20405;-66
2022/06/21 14:18:53;;;;;;;12.23;3.67;;;;;;;;;;5029132;28;20069;-65
2022/06/21 14:21:20;;;;;;;9.73;3.45;;;;;;;;;;5029699;28;20093;-68
2022/06/21 14:23:48;;;;;;;10.55;3.83;;;;;;;;;;5030041;28;20055;-66
2022/06/21 14:26:15;;;;;;;9.57;3.85;;;;;;;;;;5028735;28;20041;-65
2022/06/21 14:28:52;;;;;;;9.80;3.80;;;;;;;;;;5029339;28;20053;-67
2022/06/21 14:31:17;;;;;;;;;;;;;;;;;;5011170;28;20076;-66
2022/06/21 14:34:04;;;;;;;9.45;3.47;;;;;;;;;;5030207;28;20135;-65
2022/06/21 14:36:36;;;;;;;10.13;3.40;;;;;;;;;;5026897;28;20045;-67
2022/06/21 14:39:11;;;;;;;12.20;3.60;;;;;;;;;;5026676;28;22271;-68
2022/06/21 14:42:03;;;;;;;10.77;3.70;;;;;;;;;;5026396;28;20069;-66
2022/06/21 14:44:36;;;;;;;13.40;4.10;;;;;;;;;;4988497;28;20107;-68
2022/06/21 14:47:23;;;;;;;21.15;4.50;;;;;;;;;;5009854;28;20049;-67
2022/06/21 14:50:00;;;;;;;11.73;3.78;;;;;;;;;;5030519;28;20045;-64
2022/06/21 14:52:29;;;;;;;14.05;4.47;;;;;;;;;;5026903;28;20084;-67
2022/06/21 14:54:55;;;;;;;13.43;4.50;;;;;;;;;;5028167;28;20077;-66
2022/06/21 14:57:21;;;;;;;;;;;;;;;;;;5028271;28;20168;-66
2022/06/21 14:59:53;;;;;;;14.15;4.63;;;;;;;;;;5022380;28;19921;-65
2022/06/21 15:02:38;;;;;;;12.00;4.55;;;;;;;;;;5030415;28;20046;-65
2022/06/21 15:05:16;;;;;;;10.88;4.82;;;;;;;;;;5029171;28;20485;-65
2022/06/21 15:07:50;;;;;;;16.33;5.03;;;;;;;;;;5029350;28;20120;-63
2022/06/21 15:10:25;;;;;;;16.63;4.57;;;;;;;;;;5030045;28;20053;-83
2022/06/21 15:12:54;;;;;;;16.00;5.03;;;;;;;;;;4997496;28;20131;-78
2022/06/21 15:15:23;;;;;;;17.23;5.40;;;;;;;;;;5012289;28;20046;-79
2022/06/21 15:18:08;;;;;;;18.80;6.00;;;;;;;;;;5028349;28;20088;-77
2022/06/21 15:20:49;;;;;;;17.27;5.22;;;;;;;;;;5012756;28;20041;-75
2022/06/21 15:23:24;;;;;;;15.13;5.63;;;;;;;;;;5006298;28;20408;-74
2022/06/21 15:25:59;;;;;;;15.38;5.88;;;;;;;;;;5029777;28;20045;-75
2022/06/21 15:28:32;;;;;;;13.25;5.72;;;;;;;;;;5029149;28;20049;-80